createdAt,value
2022-11-24T00:04:43.586Z,100345.70
2022-11-24T00:09:50.705Z,100344.46
2022-11-24T00:14:57.732Z,100345.70
2022-11-24T00:20:06.057Z,100349.91
2022-11-24T00:25:13.324Z,100355.29
2022-11-24T00:30:20.479Z,100354.55
2022-11-24T00:35:27.482Z,100356.73
2022-11-24T00:40:35.187Z,100365.30
2022-11-24T00:45:43.155Z,100368.28
2022-11-24T00:50:58.139Z,100360.41
2022-11-24T00:56:05.974Z,100354.18
2022-11-24T01:01:16.631Z,100358.09
2022-11-24T01:06:25.331Z,100359.42
2022-11-24T01:11:55.877Z,100364.10
2022-11-24T01:17:02.927Z,100361.20
2022-11-24T01:22:10.077Z,100361.36
2022-11-24T01:27:17.184Z,100367.17
2022-11-24T01:32:24.242Z,100364.95
2022-11-24T01:37:31.317Z,100362.13
2022-11-24T01:42:47.723Z,100357.08
2022-11-24T01:47:54.977Z,100354.27
2022-11-24T01:53:02.272Z,100357.77
2022-11-24T01:58:14.548Z,100364.15
2022-11-24T02:03:25.705Z,100365.39
2022-11-24T02:08:40.709Z,100360.33
2022-11-24T02:13:49.236Z,100355.55
2022-11-24T02:18:56.640Z,100362.96
2022-11-24T02:24:11.203Z,100364.73
2022-11-24T02:29:18.321Z,100368.79
2022-11-24T02:34:25.431Z,100368.10
2022-11-24T02:39:32.563Z,100373.33
2022-11-24T02:44:43.547Z,100373.52
2022-11-24T02:49:50.621Z,100367.23
2022-11-24T02:54:57.685Z,100364.66
2022-11-24T03:00:05.069Z,100359.23
2022-11-24T03:05:13.249Z,100363.13
2022-11-24T03:10:20.369Z,100360.68
2022-11-24T03:15:27.491Z,100362.56
2022-11-24T03:20:34.613Z,100368.52
2022-11-24T03:25:41.700Z,100365.62
2022-11-24T03:30:50.954Z,100367.63
2022-11-24T03:35:58.030Z,100365.13
2022-11-24T03:41:05.156Z,100372.65
2022-11-24T03:46:13.498Z,100375.02
2022-11-24T03:51:20.522Z,100372.88
2022-11-24T03:56:28.112Z,100376.95
2022-11-24T04:01:35.272Z,100375.45
2022-11-24T04:06:43.065Z,100375.83
2022-11-24T04:12:08.012Z,100383.07
2022-11-24T04:17:15.148Z,100387.93
2022-11-24T04:22:22.210Z,100389.33
2022-11-24T04:27:29.424Z,100388.75
2022-11-24T04:32:36.625Z,100394.60
2022-11-24T04:37:43.726Z,100398.50
2022-11-24T04:42:56.787Z,100401.95
2022-11-24T04:48:07.232Z,100402.95
2022-11-24T04:53:14.711Z,100405.72
2022-11-24T04:58:21.757Z,100406.60
2022-11-24T05:03:28.905Z,100408.21
2022-11-24T05:08:36.063Z,100421.46
2022-11-24T05:13:43.268Z,100427.34
2022-11-24T05:18:50.429Z,100430.27
2022-11-24T05:23:57.389Z,100441.33
2022-11-24T05:29:04.592Z,100452.57
2022-11-24T05:34:12.317Z,100456.92
2022-11-24T05:39:20.065Z,100455.91
2022-11-24T05:44:27.171Z,100458.91
2022-11-24T05:49:34.352Z,100464.59
2022-11-24T05:54:41.465Z,100471.44
2022-11-24T05:59:48.413Z,100475.36
2022-11-24T06:04:55.341Z,100481.21
2022-11-24T06:10:02.395Z,100485.69
2022-11-24T06:15:11.392Z,100489.85
2022-11-24T06:20:18.544Z,100489.46
2022-11-24T06:25:26.533Z,100498.39
2022-11-24T06:30:33.667Z,100503.52
2022-11-24T06:35:40.729Z,100510.04
2022-11-24T06:40:48.004Z,100511.64
2022-11-24T06:45:55.550Z,100515.23
2022-11-24T06:51:03.804Z,100519.54
2022-11-24T06:56:16.281Z,100516.50
2022-11-24T07:01:25.956Z,100513.46
2022-11-24T07:06:34.177Z,100518.67
2022-11-24T07:11:41.982Z,100522.02
2022-11-24T07:16:51.379Z,100531.48
2022-11-24T07:21:58.297Z,100535.10
2022-11-24T07:27:05.286Z,100528.38
2022-11-24T07:32:12.301Z,100528.47
2022-11-24T07:37:19.414Z,100527.94
2022-11-24T07:42:26.486Z,100525.92
2022-11-24T07:47:33.391Z,100522.35
2022-11-24T07:52:40.591Z,100518.78
2022-11-24T07:57:50.107Z,100521.53
2022-11-24T08:02:57.456Z,100525.23
2022-11-24T08:08:05.272Z,100524.84
2022-11-24T08:13:12.240Z,100522.91
2022-11-24T08:18:29.482Z,100524.86
2022-11-24T08:23:36.930Z,100530.27
2022-11-24T08:28:44.398Z,100534.85
2022-11-24T08:33:52.354Z,100539.81
2022-11-24T08:38:58.648Z,100537.31
2022-11-24T08:44:05.837Z,100540.75
2022-11-24T08:49:14.262Z,100550.08
2022-11-24T08:54:21.925Z,100557.85
2022-11-24T08:59:29.098Z,100572.72
2022-11-24T09:04:36.501Z,100564.07
2022-11-24T09:09:43.747Z,100569.80
2022-11-24T09:14:50.711Z,100571.86
2022-11-24T09:19:57.712Z,100567.27
2022-11-24T09:25:06.038Z,100574.63
2022-11-24T09:30:15.724Z,100579.34
2022-11-24T09:35:22.678Z,100576.64
2022-11-24T09:40:35.935Z,100579.64
2022-11-24T09:46:05.381Z,100582.69
2022-11-24T09:51:16.574Z,100581.39
2022-11-24T09:56:43.704Z,100585.34
2022-11-24T10:01:52.253Z,100585.71
2022-11-24T10:07:13.362Z,100584.70
2022-11-24T10:12:51.429Z,100586.84
2022-11-24T10:18:21.231Z,100578.67
2022-11-24T10:24:01.116Z,100580.35
2022-11-24T10:29:22.610Z,100588.38
2022-11-24T10:34:42.329Z,100580.62
2022-11-24T10:40:33.505Z,100586.86
2022-11-24T10:45:45.684Z,100588.15
2022-11-24T10:51:24.720Z,100590.77
2022-11-24T10:56:48.133Z,100588.30
2022-11-24T11:01:56.407Z,100583.62
2022-11-24T11:07:20.955Z,100586.95
2022-11-24T11:13:01.973Z,100587.05
2022-11-24T11:18:34.512Z,100583.11
2022-11-24T11:23:54.357Z,100577.54
2022-11-24T11:34:38.518Z,100574.43
2022-11-24T11:39:49.023Z,100576.75
2022-11-24T11:45:00.590Z,100580.06
2022-11-24T11:50:14.552Z,100587.27
2022-11-24T11:55:50.890Z,100588.94
2022-11-24T12:01:07.462Z,100583.39
2022-11-24T12:06:30.050Z,100585.42
2022-11-24T12:11:44.382Z,100587.34
2022-11-24T12:17:02.396Z,100597.30
2022-11-24T12:22:20.709Z,100600.61
2022-11-24T12:27:39.167Z,100606.19
2022-11-24T12:33:12.984Z,100611.61
2022-11-24T12:38:33.865Z,100609.11
2022-11-24T12:43:43.474Z,100609.65
2022-11-24T12:49:02.734Z,100610.96
2022-11-24T12:54:16.937Z,100604.25
2022-11-24T12:59:35.390Z,100602.73
2022-11-24T13:04:48.441Z,100605.48
2022-11-24T13:10:54.338Z,100618.02
2022-11-24T13:22:01.241Z,100631.98
2022-11-24T13:27:44.348Z,100638.30
2022-11-24T13:33:03.259Z,100639.52
2022-11-24T13:38:43.279Z,100636.84
2022-11-24T13:44:22.826Z,100629.27
2022-11-24T13:49:42.630Z,100620.29
2022-11-24T13:54:49.826Z,100616.73
2022-11-24T14:00:03.960Z,100623.20
2022-11-24T14:05:16.105Z,100630.02
2022-11-24T14:10:28.137Z,100633.79
2022-11-24T14:15:36.691Z,100641.27
2022-11-24T14:20:43.853Z,100655.75
2022-11-24T14:25:52.906Z,100663.02
2022-11-24T14:31:11.026Z,100666.13
2022-11-24T14:36:19.349Z,100666.39
2022-11-24T14:41:30.418Z,100672.87
2022-11-24T14:46:37.894Z,100679.20
2022-11-24T14:51:51.704Z,100677.96
2022-11-24T14:57:09.937Z,100682.81
2022-11-24T15:02:46.460Z,100681.34
2022-11-24T15:08:02.876Z,100685.88
2022-11-24T15:13:23.213Z,100691.36
2022-11-24T15:18:42.630Z,100689.87
2022-11-24T15:24:07.545Z,100691.09
2022-11-24T15:29:15.431Z,100689.09
2022-11-24T15:34:21.451Z,100686.46
2022-11-24T15:39:30.184Z,100691.52
2022-11-24T15:44:37.486Z,100692.32
2022-11-24T15:49:45.832Z,100698.10
2022-11-24T15:54:57.366Z,100703.63
2022-11-24T16:00:05.352Z,100704.96
2022-11-24T16:05:19.759Z,100700.52
2022-11-24T16:10:31.056Z,100700.36
2022-11-24T16:15:38.325Z,100708.10
2022-11-24T16:20:45.486Z,100716.36
2022-11-24T16:25:52.680Z,100720.59
2022-11-24T16:30:59.694Z,100723.61
2022-11-24T16:36:07.291Z,100726.14
2022-11-24T16:41:14.607Z,100727.96
2022-11-24T16:46:23.767Z,100735.36
2022-11-24T16:51:34.942Z,100736.36
2022-11-24T16:56:42.715Z,100733.45
2022-11-24T17:01:50.894Z,100734.11
2022-11-24T17:06:59.651Z,100731.62
2022-11-24T17:12:07.103Z,100736.79
2022-11-24T17:17:14.297Z,100746.33
2022-11-24T17:22:21.307Z,100756.12
2022-11-24T17:27:28.802Z,100760.05
2022-11-24T17:32:36.029Z,100764.02
2022-11-24T17:37:43.178Z,100768.76
2022-11-24T17:42:50.297Z,100777.11
2022-11-24T17:47:57.616Z,100782.84
2022-11-24T17:53:05.199Z,100790.30
2022-11-24T17:58:12.281Z,100794.23
2022-11-24T18:03:19.459Z,100797.11
2022-11-24T18:08:50.583Z,100797.80
2022-11-24T18:14:12.831Z,100795.83
2022-11-24T18:26:09.484Z,100795.41
2022-11-24T18:31:21.072Z,100797.82
2022-11-24T18:36:30.593Z,100806.48
2022-11-24T18:41:38.557Z,100811.20
2022-11-24T18:46:46.324Z,100814.05
2022-11-24T18:51:53.834Z,100820.41
2022-11-24T18:57:03.574Z,100814.17
2022-11-24T19:02:28.354Z,100816.31
2022-11-24T19:08:09.580Z,100820.17
2022-11-24T19:13:35.389Z,100817.56
2022-11-24T19:28:08.779Z,100820.33
2022-11-24T19:33:29.052Z,100827.97
2022-11-24T19:39:19.896Z,100830.05
2022-11-24T19:44:36.393Z,100831.98
2022-11-24T19:49:43.634Z,100837.95
2022-11-24T19:54:50.577Z,100841.23
2022-11-24T19:59:57.567Z,100843.11
2022-11-24T20:05:07.049Z,100846.33
2022-11-24T20:10:15.488Z,100849.83
2022-11-24T20:15:22.399Z,100854.37
2022-11-24T20:20:30.486Z,100856.41
2022-11-24T20:25:39.055Z,100857.74
2022-11-24T20:30:46.104Z,100861.84
2022-11-24T20:35:55.612Z,100865.27
2022-11-24T20:41:09.388Z,100869.64
2022-11-24T20:46:22.389Z,100873.39
2022-11-24T20:51:31.521Z,100879.77
2022-11-24T20:56:41.133Z,100884.94
2022-11-24T21:01:50.310Z,100890.05
2022-11-24T21:06:57.808Z,100890.44
2022-11-24T21:12:05.104Z,100881.72
2022-11-24T21:17:15.121Z,100885.06
2022-11-24T21:22:22.122Z,100879.48
2022-11-24T21:27:29.574Z,100876.36
2022-11-24T21:32:37.048Z,100872.39
2022-11-24T21:37:44.314Z,100867.95
2022-11-24T21:42:51.548Z,100862.36
2022-11-24T21:48:00.503Z,100861.70
2022-11-24T21:53:09.662Z,100861.81
2022-11-24T21:58:16.721Z,100864.08
2022-11-24T22:03:27.187Z,100868.60
2022-11-24T22:08:34.444Z,100875.41
2022-11-24T22:13:42.024Z,100883.71
2022-11-24T22:18:49.260Z,100886.23
2022-11-24T22:23:56.241Z,100894.78
2022-11-24T22:29:03.367Z,100906.33
2022-11-24T22:34:10.622Z,100910.18
2022-11-24T22:39:17.845Z,100913.60
2022-11-24T22:44:24.780Z,100916.05
2022-11-24T22:49:31.749Z,100922.20
2022-11-24T22:54:38.747Z,100926.13
2022-11-24T22:59:45.907Z,100924.85
2022-11-24T23:04:52.981Z,100921.36
2022-11-24T23:09:59.948Z,100924.57
2022-11-24T23:15:08.260Z,100922.27
2022-11-24T23:20:17.126Z,100926.44
2022-11-24T23:25:26.400Z,100924.95
2022-11-24T23:30:35.065Z,100926.02
2022-11-24T23:35:42.172Z,100930.34
2022-11-24T23:40:49.299Z,100929.09
2022-11-24T23:45:56.328Z,100928.39
2022-11-24T23:51:08.635Z,100919.92
2022-11-24T23:56:18.059Z,100915.27
